Dades meteomassalio
Diari Summary for Juny 17, 2017 Units:  Metric    English   Both
« Previous Day
Next Day »
Diari Semanal Mensual Anual Personalitzat
  Maxima: Minima: Mijana:
Temperatura: 37.4 °C 16.6 °C 28 °C
Rosada: 17.3 °C 7.8 °C 12.9 °C
Humitat: 70 % 17 % 43 %
Velocitat del vent: 27.8 km/h 0.0 km/h 5.6 km/h
Racha vent: 27.8 km/h - -
Vent:- - SSW
Pressio: 1018.5 hPa 1011.7 hPa -
Pluja: 0.0 mm    
Historical Graphs
 
 
Tabular Data for Juny 17, 2017
Time Temperature Dew Point Pressure Wind Wind Speed Wind Gust Humidity Rainfall Rate (Hourly) solar Conditions
00:02 24.5 °C 13.7 °C 1017.2 hPa Calm     51 % 0.0 mm 0.0 W/m2 CLR
00:07 24.4 °C 13.6 °C 1017.2 hPa Calm     51 % 0.0 mm 0.0 W/m2 CLR
00:12 24.3 °C 13.8 °C 1017.2 hPa Calm     52 % 0.0 mm 0.0 W/m2 CLR
00:17 24.2 °C 13.7 °C 1017.2 hPa Calm     52 % 0.0 mm 0.0 W/m2 CLR
00:22 24.0 °C 13.8 °C 1017.2 hPa Calm     53 % 0.0 mm 0.0 W/m2 CLR
00:27 23.9 °C 13.8 °C 1017.2 hPa Calm     53 % 0.0 mm 0.0 W/m2 CLR
00:32 23.9 °C 13.4 °C 1017.5 hPa Calm     52 % 0.0 mm 0.0 W/m2 CLR
00:37 23.9 °C 13.7 °C 1017.5 hPa Calm     53 % 0.0 mm 0.0 W/m2 CLR
00:42 23.9 °C 13.7 °C 1017.5 hPa Calm     53 % 0.0 mm 0.0 W/m2 CLR
00:47 23.9 °C 15.7 °C 1017.5 hPa Calm     60 % 0.0 mm 0.0 W/m2 CLR
00:52 23.7 °C 15.8 °C 1017.5 hPa Calm     61 % 0.0 mm 0.0 W/m2 CLR
00:57 23.5 °C 15.6 °C 1017.5 hPa Calm     61 % 0.0 mm 0.0 W/m2 CLR
01:02 23.3 °C 15.7 °C 1017.5 hPa Calm     62 % 0.0 mm 0.0 W/m2 CLR
01:07 23.3 °C 15.1 °C 1017.8 hPa Calm     60 % 0.0 mm 0.0 W/m2 CLR
01:12 23.2 °C 13.9 °C 1017.8 hPa Calm     56 % 0.0 mm 0.0 W/m2 CLR
01:17 23.2 °C 14.4 °C 1017.8 hPa Calm     58 % 0.0 mm 0.0 W/m2 CLR
01:22 23.2 °C 15.6 °C 1017.8 hPa Calm     62 % 0.0 mm 0.0 W/m2 CLR
01:27 23.0 °C 15.1 °C 1017.8 hPa Calm     61 % 0.0 mm 0.0 W/m2 CLR
01:32 23.0 °C 13.7 °C 1017.8 hPa Calm     56 % 0.0 mm 0.0 W/m2 CLR
01:37 23.1 °C 13.2 °C 1017.8 hPa Calm     54 % 0.0 mm 0.0 W/m2 CLR
01:42 23.3 °C 11.3 °C 1017.8 hPa Calm     47 % 0.0 mm 0.0 W/m2 CLR
01:47 23.8 °C 11.8 °C 1017.8 hPa Calm     47 % 0.0 mm 0.0 W/m2 CLR
01:52 23.9 °C 10.9 °C 1017.8 hPa Calm     44 % 0.0 mm 0.0 W/m2 CLR
01:57 24.0 °C 11.0 °C 1017.8 hPa Calm     44 % 0.0 mm 0.0 W/m2 CLR
02:02 24.0 °C 11.3 °C 1017.8 hPa Calm     45 % 0.0 mm 0.0 W/m2 CLR
02:07 23.9 °C 11.6 °C 1017.8 hPa Calm     46 % 0.0 mm 0.0 W/m2 CLR
02:12 23.8 °C 12.4 °C 1017.8 hPa Calm     49 % 0.0 mm 0.0 W/m2 CLR
02:17 23.4 °C 13.0 °C 1017.8 hPa Calm     52 % 0.0 mm 0.0 W/m2 CLR
02:22 23.1 °C 12.7 °C 1017.8 hPa Calm     52 % 0.0 mm 0.0 W/m2 CLR
02:28 22.8 °C 13.6 °C 1017.8 hPa Calm     56 % 0.0 mm 0.0 W/m2 CLR
02:33 22.5 °C 12.4 °C 1017.8 hPa Calm     53 % 0.0 mm 0.0 W/m2 CLR
02:38 22.3 °C 12.2 °C 1017.8 hPa Calm     53 % 0.0 mm 0.0 W/m2 CLR
02:43 21.9 °C 11.6 °C 1017.8 hPa Calm     52 % 0.0 mm 0.0 W/m2 CLR
02:48 21.8 °C 10.9 °C 1017.8 hPa Calm     50 % 0.0 mm 0.0 W/m2 CLR
02:53 21.7 °C 11.7 °C 1017.8 hPa Calm     53 % 0.0 mm 0.0 W/m2 CLR
02:58 21.4 °C 11.2 °C 1017.8 hPa Calm     52 % 0.0 mm 0.0 W/m2 CLR
03:03 21.3 °C 10.8 °C 1017.8 hPa Calm     51 % 0.0 mm 0.0 W/m2 CLR
03:08 21.3 °C 10.7 °C 1018.2 hPa Calm     51 % 0.0 mm 0.0 W/m2 CLR
03:13 21.3 °C 10.4 °C 1017.8 hPa Calm     50 % 0.0 mm 0.0 W/m2 CLR
03:18 21.3 °C 10.7 °C 1017.8 hPa Calm     51 % 0.0 mm 0.0 W/m2 CLR
03:23 21.2 °C 10.9 °C 1018.2 hPa Calm     52 % 0.0 mm 0.0 W/m2 CLR
03:28 21.2 °C 10.0 °C 1018.2 hPa Calm     49 % 0.0 mm 0.0 W/m2 CLR
03:33 21.2 °C 10.1 °C 1018.2 hPa Calm     49 % 0.0 mm 0.0 W/m2 CLR
03:38 21.3 °C 10.1 °C 1017.8 hPa Calm     49 % 0.0 mm 0.0 W/m2 CLR
03:43 21.4 °C 9.6 °C 1017.8 hPa Calm     47 % 0.0 mm 0.0 W/m2 CLR
03:48 21.4 °C 11.1 °C 1018.2 hPa Calm     52 % 0.0 mm 0.0 W/m2 CLR
03:53 20.9 °C 12.3 °C 1018.2 hPa Calm     58 % 0.0 mm 0.0 W/m2 CLR
03:58 20.4 °C 13.2 °C 1018.2 hPa Calm     63 % 0.0 mm 0.0 W/m2 CLR
04:03 20.0 °C 13.0 °C 1017.8 hPa Calm     64 % 0.0 mm 0.0 W/m2 CLR
04:08 19.4 °C 12.9 °C 1018.2 hPa Calm     66 % 0.0 mm 0.0 W/m2 CLR
04:13 19.3 °C 12.6 °C 1018.2 hPa Calm     65 % 0.0 mm 0.0 W/m2 CLR
04:18 19.4 °C 11.5 °C 1018.2 hPa Calm     60 % 0.0 mm 0.0 W/m2 CLR
04:23 19.6 °C 11.6 °C 1018.2 hPa Calm     60 % 0.0 mm 0.0 W/m2 CLR
04:28 19.7 °C 12.5 °C 1018.2 hPa Calm     63 % 0.0 mm 0.0 W/m2 CLR
04:33 19.6 °C 13.1 °C 1018.2 hPa Calm     66 % 0.0 mm 0.0 W/m2 CLR
04:38 19.2 °C 12.9 °C 1018.2 hPa Calm     67 % 0.0 mm 0.0 W/m2 CLR
04:43 18.9 °C 12.8 °C 1018.2 hPa Calm     68 % 0.0 mm 0.0 W/m2 CLR
04:48 18.5 °C 12.7 °C 1018.2 hPa Calm     69 % 0.0 mm 0.0 W/m2 CLR
04:53 18.3 °C 12.3 °C 1018.2 hPa Calm     68 % 0.0 mm 0.0 W/m2 CLR
04:58 18.4 °C 12.4 °C 1018.2 hPa Calm     68 % 0.0 mm 0.0 W/m2 CLR
05:03 18.3 °C 11.2 °C 1018.2 hPa Calm     63 % 0.0 mm 0.0 W/m2 CLR
05:08 18.2 °C 11.1 °C 1018.2 hPa Calm     63 % 0.0 mm 0.0 W/m2 CLR
05:13 18.1 °C 10.9 °C 1018.2 hPa Calm     63 % 0.0 mm 0.0 W/m2 CLR
05:18 18.0 °C 10.8 °C 1017.8 hPa Calm     63 % 0.0 mm 0.0 W/m2 CLR
05:23 17.9 °C 10.8 °C 1017.8 hPa Calm     63 % 0.0 mm 0.0 W/m2 CLR
05:28 18.0 °C 10.8 °C 1017.8 hPa Calm     63 % 0.0 mm 0.0 W/m2 CLR
05:33 18.1 °C 10.9 °C 1017.8 hPa Calm     63 % 0.0 mm 0.0 W/m2 CLR
05:38 18.0 °C 11.1 °C 1017.8 hPa Calm     64 % 0.0 mm 0.0 W/m2 CLR
05:43 17.9 °C 11.0 °C 1017.8 hPa Calm     64 % 0.0 mm 0.0 W/m2 CLR
05:48 17.7 °C 10.6 °C 1018.2 hPa Calm     63 % 0.0 mm 0.0 W/m2 CLR
05:53 17.5 °C 10.6 °C 1018.2 hPa Calm     64 % 0.0 mm 0.0 W/m2 CLR
05:58 17.3 °C 11.4 °C 1017.8 hPa Calm     68 % 0.0 mm 0.0 W/m2 CLR
06:03 17.2 °C 11.7 °C 1018.2 hPa Calm     70 % 0.0 mm 0.0 W/m2 CLR
06:08 17.0 °C 11.5 °C 1018.2 hPa Calm     70 % 0.0 mm 0.0 W/m2 CLR
06:13 16.8 °C 11.3 °C 1018.2 hPa Calm     70 % 0.0 mm 0.0 W/m2 CLR
06:18 16.6 °C 10.9 °C 1018.2 hPa Calm     69 % 0.0 mm 0.0 W/m2 OVC
06:23 16.6 °C 10.7 °C 1018.2 hPa Calm     68 % 0.0 mm 0.0 W/m2 OVC
06:28 16.7 °C 10.7 °C 1018.2 hPa Calm     68 % 0.0 mm 5.0 W/m2 OVC
06:33 16.6 °C 10.4 °C 1018.2 hPa Calm     67 % 0.0 mm 7.0 W/m2 OVC
06:38 16.7 °C 10.5 °C 1018.2 hPa Calm     67 % 0.0 mm 9.0 W/m2 BKN
06:43 16.7 °C 10.3 °C 1018.2 hPa Calm     66 % 0.0 mm 11.0 W/m2 BKN
06:48 16.8 °C 10.4 °C 1018.2 hPa Calm     66 % 0.0 mm 12.0 W/m2 BKN
06:53 16.8 °C 10.6 °C 1018.2 hPa Calm     67 % 0.0 mm 14.0 W/m2 BKN
06:58 16.7 °C 11.0 °C 1018.2 hPa Calm     69 % 0.0 mm 16.0 W/m2 BKN
07:03 16.6 °C 10.9 °C 1018.2 hPa Calm     69 % 0.0 mm 21.0 W/m2 BKN
07:08 16.6 °C 10.8 °C 1018.5 hPa Calm     69 % 0.0 mm 35.0 W/m2 BKN
07:13 16.7 °C 11.2 °C 1018.5 hPa Calm     70 % 0.0 mm 44.0 W/m2 BKN
07:18 16.8 °C 10.8 °C 1018.5 hPa Calm     68 % 0.0 mm 56.0 W/m2 SCT
07:23 17.0 °C 11.1 °C 1018.5 hPa Calm     68 % 0.0 mm 69.0 W/m2 FEW
07:28 17.3 °C 11.2 °C 1018.5 hPa Calm     67 % 0.0 mm 81.0 W/m2 FEW
07:33 17.6 °C 11.2 °C 1018.5 hPa Calm     66 % 0.0 mm 95.0 W/m2 FEW
07:38 17.9 °C 11.2 °C 1018.2 hPa Calm     65 % 0.0 mm 113.0 W/m2 CLR
07:43 18.3 °C 11.6 °C 1018.2 hPa Calm     65 % 0.0 mm 127.0 W/m2 CLR
07:48 18.7 °C 11.5 °C 1018.2 hPa Calm     63 % 0.0 mm 142.0 W/m2 CLR
07:53 19.2 °C 11.4 °C 1018.2 hPa Calm     61 % 0.0 mm 160.0 W/m2 CLR
07:58 19.6 °C 12.4 °C 1018.2 hPa Calm     63 % 0.0 mm 179.0 W/m2 CLR
08:03 20.0 °C 12.5 °C 1018.2 hPa Calm     62 % 0.0 mm 197.0 W/m2 CLR
08:08 20.4 °C 12.4 °C 1018.2 hPa Calm     60 % 0.0 mm 211.0 W/m2 CLR
08:18 21.1 °C 12.5 °C 1018.2 hPa Calm     58 % 0.0 mm 244.0 W/m2 CLR
08:23 21.4 °C 12.8 °C 1018.2 hPa Calm     58 % 0.0 mm 260.0 W/m2 CLR
08:28 21.8 °C 13.2 °C 1018.2 hPa Calm     58 % 0.0 mm 274.0 W/m2 CLR
08:33 22.1 °C 13.4 °C 1018.2 hPa Calm     58 % 0.0 mm 288.0 W/m2 CLR
08:38 22.4 °C 13.5 °C 1017.8 hPa Calm     57 % 0.0 mm 306.0 W/m2 CLR
08:49 23.7 °C 12.9 °C 1018.2 hPa West 13.0 km/h 13.0 km/h 51 % 0.0 mm 338.0 W/m2 CLR
08:54 23.9 °C 13.2 °C 1017.8 hPa WNW 18.5 km/h 18.5 km/h 51 % 0.0 mm 352.0 W/m2 CLR
08:59 24.2 °C 13.1 °C 1017.8 hPa NW 18.5 km/h 18.5 km/h 50 % 0.0 mm 371.0 W/m2 CLR
09:04 24.4 °C 13.3 °C 1017.8 hPa WNW 14.5 km/h 14.5 km/h 50 % 0.0 mm 385.0 W/m2 CLR
09:09 24.6 °C 13.1 °C 1017.8 hPa WNW 13.0 km/h 13.0 km/h 49 % 0.0 mm 401.0 W/m2 CLR
09:14 24.7 °C 12.9 °C 1017.8 hPa West 16.7 km/h 16.7 km/h 48 % 0.0 mm 415.0 W/m2 CLR
09:19 24.8 °C 12.7 °C 1017.8 hPa WNW 16.1 km/h 16.1 km/h 47 % 0.0 mm 429.0 W/m2 CLR
09:24 24.9 °C 12.8 °C 1017.8 hPa WNW 16.7 km/h 16.7 km/h 47 % 0.0 mm 446.0 W/m2 CLR
09:29 25.1 °C 13.0 °C 1017.8 hPa WNW 13.0 km/h 13.0 km/h 47 % 0.0 mm 461.0 W/m2 CLR
09:34 25.3 °C 13.2 °C 1017.8 hPa WNW 14.8 km/h 14.8 km/h 47 % 0.0 mm 475.0 W/m2 CLR
09:39 25.4 °C 13.3 °C 1017.8 hPa WNW 16.1 km/h 16.1 km/h 47 % 0.0 mm 489.0 W/m2 CLR
09:44 25.6 °C 13.4 °C 1017.8 hPa Calm     47 % 0.0 mm 504.0 W/m2 CLR
09:49 25.9 °C 13.4 °C 1017.8 hPa NW 18.5 km/h 18.5 km/h 46 % 0.0 mm 520.0 W/m2 CLR
09:54 25.9 °C 13.4 °C 1017.8 hPa NW 18.5 km/h 18.5 km/h 46 % 0.0 mm 536.0 W/m2 CLR
09:59 26.1 °C 13.2 °C 1017.8 hPa WNW 18.5 km/h 18.5 km/h 45 % 0.0 mm 548.0 W/m2 CLR
10:04 26.2 °C 13.7 °C 1017.8 hPa WNW 20.4 km/h 20.4 km/h 46 % 0.0 mm 564.0 W/m2 CLR
10:09 26.3 °C 13.7 °C 1017.8 hPa NW 20.4 km/h 20.4 km/h 46 % 0.0 mm 580.0 W/m2 CLR
10:14 26.5 °C 13.6 °C 1017.8 hPa WNW 18.5 km/h 18.5 km/h 45 % 0.0 mm 591.0 W/m2 CLR
10:19 26.6 °C 13.7 °C 1017.5 hPa NW 18.5 km/h 18.5 km/h 45 % 0.0 mm 605.0 W/m2 CLR
10:24 26.8 °C 13.5 °C 1017.5 hPa NW 16.7 km/h 16.7 km/h 44 % 0.0 mm 621.0 W/m2 CLR
10:29 26.9 °C 13.3 °C 1017.5 hPa WNW 3.7 km/h 3.7 km/h 43 % 0.0 mm 638.0 W/m2 CLR
10:34 27.1 °C 13.4 °C 1017.5 hPa NNW 18.5 km/h 18.5 km/h 43 % 0.0 mm 649.0 W/m2 CLR
10:39 27.2 °C 13.6 °C 1017.5 hPa NNW 20.4 km/h 20.4 km/h 43 % 0.0 mm 659.0 W/m2 CLR
10:44 27.4 °C 13.3 °C 1017.5 hPa West 18.5 km/h 18.5 km/h 42 % 0.0 mm 673.0 W/m2 CLR
10:49 27.2 °C 13.5 °C 1017.5 hPa West 18.5 km/h 18.5 km/h 43 % 0.0 mm 687.0 W/m2 CLR
10:54 27.2 °C 13.6 °C 1017.5 hPa West 5.6 km/h 5.6 km/h 43 % 0.0 mm 700.0 W/m2 CLR
10:59 27.5 °C 13.8 °C 1017.2 hPa NW 19.3 km/h 19.3 km/h 43 % 0.0 mm 714.0 W/m2 CLR
11:04 27.8 °C 13.7 °C 1017.2 hPa NW 16.7 km/h 16.7 km/h 42 % 0.0 mm 724.0 W/m2 CLR
11:09 28.0 °C 14.3 °C 1017.2 hPa West 18.5 km/h 18.5 km/h 43 % 0.0 mm 737.0 W/m2 CLR
11:14 27.9 °C 14.2 °C 1017.2 hPa Calm     43 % 0.0 mm 747.0 W/m2 CLR
11:19 28.2 °C 13.7 °C 1017.2 hPa NNW 20.4 km/h 20.4 km/h 41 % 0.0 mm 758.0 W/m2 CLR
11:24 28.4 °C 13.9 °C 1017.2 hPa NNW 6.4 km/h 6.4 km/h 41 % 0.0 mm 768.0 W/m2 CLR
11:29 28.7 °C 14.1 °C 1016.8 hPa North 14.8 km/h 14.8 km/h 41 % 0.0 mm 780.0 W/m2 CLR
11:34 28.7 °C 13.8 °C 1016.8 hPa Calm     40 % 0.0 mm 793.0 W/m2 CLR
11:39 29.1 °C 14.5 °C 1016.8 hPa NNW 18.5 km/h 18.5 km/h 41 % 0.0 mm 802.0 W/m2 CLR
11:44 29.2 °C 14.2 °C 1016.8 hPa WNW 20.4 km/h 20.4 km/h 40 % 0.0 mm 807.0 W/m2 CLR
11:49 29.3 °C 13.6 °C 1016.8 hPa NW 16.7 km/h 16.7 km/h 38 % 0.0 mm 823.0 W/m2 CLR
11:54 29.5 °C 14.1 °C 1016.8 hPa WSW 18.5 km/h 18.5 km/h 39 % 0.0 mm 830.0 W/m2 CLR
11:59 29.6 °C 13.7 °C 1016.8 hPa NW 16.7 km/h 16.7 km/h 38 % 0.0 mm 838.0 W/m2 CLR
12:00 29.6 °C 13.7 °C 1016.8 hPa NNW 16.7 km/h 16.7 km/h 38 % 0.0 mm 838.0 W/m2 CLR
12:05 29.9 °C 14.1 °C 1016.5 hPa WNW 16.7 km/h 16.7 km/h 38 % 0.0 mm 847.0 W/m2 CLR
12:10 30.2 °C 13.9 °C 1016.8 hPa NNW 11.1 km/h   37 % 0.0 mm 856.0 W/m2 CLR
12:15 30.3 °C 13.6 °C 1016.8 hPa NNW 20.4 km/h 20.4 km/h 36 % 0.0 mm 865.0 W/m2 CLR
12:20 30.3 °C 13.6 °C 1016.5 hPa NW 24.1 km/h 24.1 km/h 36 % 0.0 mm 874.0 W/m2 CLR
12:25 30.5 °C 13.7 °C 1016.5 hPa WNW 18.5 km/h 18.5 km/h 36 % 0.0 mm 881.0 W/m2 CLR
12:30 30.6 °C 13.8 °C 1016.5 hPa NNW 5.6 km/h   36 % 0.0 mm 888.0 W/m2 CLR
12:35 30.9 °C 13.2 °C 1016.5 hPa NNW 27.8 km/h 27.8 km/h 34 % 0.0 mm 896.0 W/m2 CLR
12:40 30.9 °C 13.3 °C 1016.5 hPa North 18.5 km/h 18.5 km/h 34 % 0.0 mm 898.0 W/m2 CLR
12:45 31.1 °C 12.9 °C 1016.5 hPa WNW 14.8 km/h 14.8 km/h 33 % 0.0 mm 909.0 W/m2 CLR
12:50 31.0 °C 13.3 °C 1016.1 hPa NNW 16.1 km/h 16.1 km/h 34 % 0.0 mm 912.0 W/m2 CLR
12:55 31.2 °C 13.5 °C 1016.1 hPa North 16.7 km/h 16.7 km/h 34 % 0.0 mm 918.0 W/m2 CLR
13:00 31.3 °C 14.1 °C 1016.1 hPa North 16.1 km/h 16.1 km/h 35 % 0.0 mm 921.0 W/m2 CLR
13:05 31.6 °C 13.3 °C 1016.1 hPa NNW 17.7 km/h 17.7 km/h 33 % 0.0 mm 925.0 W/m2 CLR
13:10 31.6 °C 13.4 °C 1016.1 hPa NW 20.4 km/h 20.4 km/h 33 % 0.0 mm 933.0 W/m2 CLR
13:15 31.6 °C 13.4 °C 1016.1 hPa Calm     33 % 0.0 mm 933.0 W/m2 CLR
13:20 31.8 °C 13.1 °C 1016.1 hPa WSW 7.4 km/h 7.4 km/h 32 % 0.0 mm 939.0 W/m2 CLR
13:25 32.0 °C 13.2 °C 1016.1 hPa NW 20.9 km/h 20.9 km/h 32 % 0.0 mm 940.0 W/m2 CLR
13:30 32.3 °C 13.1 °C 1015.8 hPa Calm     31 % 0.0 mm 942.0 W/m2 CLR
13:35 32.6 °C 12.8 °C 1015.8 hPa NNW 5.6 km/h 5.6 km/h 30 % 0.0 mm 946.0 W/m2 CLR
13:40 32.8 °C 13.5 °C 1015.8 hPa WNW 8.0 km/h 8.0 km/h 31 % 0.0 mm 946.0 W/m2 CLR
13:45 32.9 °C 13.5 °C 1015.8 hPa NNW 13.0 km/h 13.0 km/h 31 % 0.0 mm 949.0 W/m2 CLR
13:50 32.8 °C 13.9 °C 1015.5 hPa NNE 7.4 km/h   32 % 0.0 mm 949.0 W/m2 CLR
13:55 33.1 °C 13.7 °C 1015.5 hPa Calm     31 % 0.0 mm 947.0 W/m2 CLR
14:00 33.2 °C 13.8 °C 1015.5 hPa Calm     31 % 0.0 mm 949.0 W/m2 CLR
14:05 33.6 °C 14.1 °C 1015.5 hPa Calm     31 % 0.0 mm 947.0 W/m2 CLR
14:10 33.7 °C 13.7 °C 1015.5 hPa NNE 8.0 km/h 8.0 km/h 30 % 0.0 mm 947.0 W/m2 CLR
14:15 33.5 °C 14.1 °C 1015.5 hPa NNE 11.1 km/h 11.1 km/h 31 % 0.0 mm 947.0 W/m2 CLR
14:20 33.3 °C 13.9 °C 1015.1 hPa Calm     31 % 0.0 mm 947.0 W/m2 CLR
14:25 33.5 °C 14.1 °C 1015.1 hPa NW 14.8 km/h 14.8 km/h 31 % 0.0 mm 944.0 W/m2 CLR
14:30 33.4 °C 14.0 °C 1015.1 hPa North 4.8 km/h 4.8 km/h 31 % 0.0 mm 939.0 W/m2 CLR
14:35 33.5 °C 14.6 °C 1015.1 hPa Calm     32 % 0.0 mm 942.0 W/m2 CLR
14:40 33.8 °C 14.3 °C 1015.1 hPa Calm     31 % 0.0 mm 935.0 W/m2 CLR
14:45 34.3 °C 13.7 °C 1014.8 hPa North 9.3 km/h 9.3 km/h 29 % 0.0 mm 935.0 W/m2 CLR
14:50 34.4 °C 13.8 °C 1014.8 hPa North 6.4 km/h 6.4 km/h 29 % 0.0 mm 935.0 W/m2 CLR
14:55 34.4 °C 14.3 °C 1014.8 hPa Calm     30 % 0.0 mm 928.0 W/m2 CLR
15:00 34.6 °C 14.0 °C 1014.8 hPa Calm     29 % 0.0 mm 928.0 W/m2 CLR
15:03 34.8 °C 14.1 °C 1014.4 hPa NW 11.3 km/h 11.3 km/h 29 % 0.0 mm 923.0 W/m2 CLR
15:08 34.8 °C 14.1 °C 1014.4 hPa NW 12.9 km/h 12.9 km/h 29 % 0.0 mm 923.0 W/m2 CLR
15:13 34.5 °C 13.9 °C 1014.4 hPa NNW 5.6 km/h 5.6 km/h 29 % 0.0 mm 916.0 W/m2 CLR
15:18 34.6 °C 13.4 °C 1014.4 hPa Calm     28 % 0.0 mm 907.0 W/m2 CLR
15:23 34.8 °C 14.2 °C 1014.4 hPa NNW 5.6 km/h 5.6 km/h 29 % 0.0 mm 900.0 W/m2 CLR
15:28 34.8 °C 13.6 °C 1014.1 hPa North 5.6 km/h 5.6 km/h 28 % 0.0 mm 896.0 W/m2 CLR
15:33 35.0 °C 13.8 °C 1014.1 hPa NE 11.3 km/h 11.3 km/h 28 % 0.0 mm 888.0 W/m2 CLR
15:38 35.2 °C 13.9 °C 1014.1 hPa Calm     28 % 0.0 mm 884.0 W/m2 CLR
15:43 35.4 °C 13.0 °C 1013.8 hPa NNE 13.0 km/h 13.0 km/h 26 % 0.0 mm 879.0 W/m2 CLR
15:48 35.4 °C 12.4 °C 1013.8 hPa NE 13.0 km/h 13.0 km/h 25 % 0.0 mm 870.0 W/m2 CLR
15:53 35.4 °C 12.4 °C 1013.8 hPa North 1.9 km/h   25 % 0.0 mm 868.0 W/m2 CLR
15:58 35.4 °C 11.8 °C 1013.8 hPa North 11.1 km/h 11.1 km/h 24 % 0.0 mm 860.0 W/m2 CLR
16:03 35.6 °C 11.2 °C 1013.8 hPa NE 5.6 km/h 5.6 km/h 23 % 0.0 mm 854.0 W/m2 CLR
16:08 35.7 °C 11.3 °C 1013.8 hPa Calm     23 % 0.0 mm 838.0 W/m2 CLR
16:13 35.8 °C 10.8 °C 1013.4 hPa WNW 9.3 km/h 9.3 km/h 22 % 0.0 mm 828.0 W/m2 CLR
16:18 35.7 °C 10.7 °C 1013.4 hPa Calm     22 % 0.0 mm 814.0 W/m2 CLR
16:23 35.8 °C 10.1 °C 1013.4 hPa Calm     21 % 0.0 mm 810.0 W/m2 CLR
16:28 36.0 °C 10.2 °C 1013.4 hPa Calm     21 % 0.0 mm 795.0 W/m2 CLR
16:33 36.1 °C 9.6 °C 1013.4 hPa NE 3.7 km/h 3.7 km/h 20 % 0.0 mm 788.0 W/m2 CLR
16:38 36.4 °C 8.3 °C 1013.4 hPa Calm     18 % 0.0 mm 780.0 W/m2 CLR
16:43 36.4 °C 9.1 °C 1013.1 hPa Calm     19 % 0.0 mm 768.0 W/m2 CLR
16:44 36.4 °C 9.1 °C 1013.1 hPa Calm     19 % 0.0 mm 765.0 W/m2 CLR
16:49 36.5 °C 9.9 °C 1013.1 hPa ESE 4.8 km/h 4.8 km/h 20 % 0.0 mm 758.0 W/m2 CLR
16:54 36.5 °C 9.9 °C 1013.1 hPa Calm   0.3 km/h 20 % 0.0 mm 744.0 W/m2 CLR
16:59 36.4 °C 10.6 °C 1013.1 hPa Calm     21 % 0.0 mm 729.0 W/m2 CLR
17:04 36.7 °C 10.8 °C 1012.8 hPa ENE 5.6 km/h 5.6 km/h 21 % 0.0 mm 717.0 W/m2 CLR
17:09 36.7 °C 10.8 °C 1012.8 hPa ENE 13.0 km/h 13.0 km/h 21 % 0.0 mm 705.0 W/m2 CLR
17:14 36.7 °C 10.8 °C 1012.8 hPa NNE 9.7 km/h 9.7 km/h 21 % 0.0 mm 693.0 W/m2 CLR
17:19 36.6 °C 10.7 °C 1012.8 hPa Calm   0.6 km/h 21 % 0.0 mm 680.0 W/m2 CLR
17:24 36.6 °C 10.7 °C 1012.8 hPa ENE 5.6 km/h 5.6 km/h 21 % 0.0 mm 666.0 W/m2 CLR
17:29 36.7 °C 10.1 °C 1012.4 hPa ENE 3.7 km/h 3.7 km/h 20 % 0.0 mm 654.0 W/m2 CLR
17:34 36.7 °C 9.3 °C 1012.4 hPa ENE 5.6 km/h 5.6 km/h 19 % 0.0 mm 642.0 W/m2 CLR
17:39 36.8 °C 8.6 °C 1012.4 hPa ENE 5.6 km/h 5.6 km/h 18 % 0.0 mm 629.0 W/m2 CLR
17:44 36.8 °C 7.8 °C 1012.4 hPa NE 7.4 km/h 7.4 km/h 17 % 0.0 mm 612.0 W/m2 CLR
17:49 36.9 °C 7.9 °C 1012.4 hPa ENE 6.4 km/h 6.4 km/h 17 % 0.0 mm 598.0 W/m2 CLR
17:54 37.1 °C 8.8 °C 1012.1 hPa Calm     18 % 0.0 mm 587.0 W/m2 CLR
17:59 37.2 °C 8.9 °C 1012.1 hPa NNE 7.4 km/h 7.4 km/h 18 % 0.0 mm 578.0 W/m2 CLR
18:04 37.3 °C 9.0 °C 1012.1 hPa ENE 5.6 km/h 5.6 km/h 18 % 0.0 mm 561.0 W/m2 CLR
18:09 37.1 °C 8.8 °C 1012.1 hPa SE 5.6 km/h 5.6 km/h 18 % 0.0 mm 548.0 W/m2 CLR
18:14 36.8 °C 8.6 °C 1012.1 hPa ENE 6.4 km/h 6.4 km/h 18 % 0.0 mm 533.0 W/m2 CLR
18:19 36.8 °C 8.6 °C 1012.1 hPa Calm     18 % 0.0 mm 520.0 W/m2 CLR
18:24 36.9 °C 10.2 °C 1012.1 hPa NNE 1.9 km/h   20 % 0.0 mm 499.0 W/m2 CLR
18:29 37.1 °C 10.4 °C 1012.1 hPa NE 7.4 km/h 7.4 km/h 20 % 0.0 mm 489.0 W/m2 CLR
18:34 37.3 °C 10.6 °C 1011.7 hPa North 5.6 km/h 5.6 km/h 20 % 0.0 mm 469.0 W/m2 CLR
18:39 37.4 °C 9.9 °C 1011.7 hPa NNW 5.6 km/h 5.6 km/h 19 % 0.0 mm 459.0 W/m2 CLR
18:44 37.4 °C 9.9 °C 1011.7 hPa North 7.4 km/h 7.4 km/h 19 % 0.0 mm 446.0 W/m2 CLR
18:49 37.3 °C 9.8 °C 1011.7 hPa North 9.7 km/h 9.7 km/h 19 % 0.0 mm 431.0 W/m2 CLR
18:54 37.3 °C 9.8 °C 1011.7 hPa Calm     19 % 0.0 mm 413.0 W/m2 CLR
18:59 37.2 °C 9.7 °C 1011.7 hPa NE 7.4 km/h 7.4 km/h 19 % 0.0 mm 399.0 W/m2 CLR
19:04 37.1 °C 10.4 °C 1011.7 hPa Calm     20 % 0.0 mm 385.0 W/m2 CLR
19:09 37.2 °C 9.7 °C 1011.7 hPa North 7.4 km/h 7.4 km/h 19 % 0.0 mm 366.0 W/m2 CLR
19:14 37.2 °C 9.7 °C 1011.7 hPa Calm     19 % 0.0 mm 346.0 W/m2 CLR
19:19 37.2 °C 9.7 °C 1011.7 hPa Calm     19 % 0.0 mm 334.0 W/m2 CLR
19:24 37.1 °C 10.4 °C 1011.7 hPa Calm     20 % 0.0 mm 320.0 W/m2 CLR
19:29 37.3 °C 10.6 °C 1011.7 hPa Calm   0.2 km/h 20 % 0.0 mm 306.0 W/m2 CLR
19:34 37.1 °C 11.2 °C 1011.7 hPa Calm     21 % 0.0 mm 287.0 W/m2 CLR
19:39 37.1 °C 9.7 °C 1011.7 hPa Calm     19 % 0.0 mm 269.0 W/m2 CLR
19:44 37.2 °C 10.5 °C 1011.7 hPa ENE 3.2 km/h 3.2 km/h 20 % 0.0 mm 255.0 W/m2 CLR
19:49 36.9 °C 9.5 °C 1011.7 hPa Calm     19 % 0.0 mm 239.0 W/m2 CLR
19:54 36.8 °C 10.2 °C 1011.7 hPa NE 5.6 km/h 5.6 km/h 20 % 0.0 mm 218.0 W/m2 CLR
19:59 36.7 °C 10.8 °C 1011.7 hPa Calm     21 % 0.0 mm 202.0 W/m2 CLR
20:04 36.5 °C 10.7 °C 1011.7 hPa Calm     21 % 0.0 mm 185.0 W/m2 CLR
20:09 36.4 °C 9.9 °C 1011.7 hPa Calm     20 % 0.0 mm 167.0 W/m2 CLR
20:14 36.4 °C 9.9 °C 1011.7 hPa NE 1.6 km/h   20 % 0.0 mm 148.0 W/m2 CLR
20:19 36.3 °C 10.5 °C 1011.7 hPa NNE 1.9 km/h 1.9 km/h 21 % 0.0 mm 132.0 W/m2 CLR
20:24 35.8 °C 15.0 °C 1011.7 hPa East 16.7 km/h 16.7 km/h 29 % 0.0 mm 116.0 W/m2 CLR
20:29 34.7 °C 16.1 °C 1011.7 hPa ESE 14.8 km/h 14.8 km/h 33 % 0.0 mm 100.0 W/m2 CLR
20:34 34.2 °C 16.1 °C 1011.7 hPa ESE 13.0 km/h 13.0 km/h 34 % 0.0 mm 86.0 W/m2 CLR
20:39 33.8 °C 16.7 °C 1011.7 hPa ESE 16.7 km/h 16.7 km/h 36 % 0.0 mm 70.0 W/m2 FEW
20:44 33.6 °C 16.9 °C 1011.7 hPa ESE 13.0 km/h 13.0 km/h 37 % 0.0 mm 42.0 W/m2 SCT
20:49 33.4 °C 17.2 °C 1011.7 hPa SE 5.6 km/h   38 % 0.0 mm 46.0 W/m2 SCT
20:54 33.3 °C 16.6 °C 1011.7 hPa SE 16.7 km/h 16.7 km/h 37 % 0.0 mm 39.0 W/m2 BKN
20:59 33.1 °C 16.9 °C 1011.7 hPa SE 8.0 km/h 8.0 km/h 38 % 0.0 mm 28.0 W/m2 BKN
21:04 33.0 °C 16.8 °C 1011.7 hPa SE 13.0 km/h 13.0 km/h 38 % 0.0 mm 21.0 W/m2 BKN
21:09 32.8 °C 16.7 °C 1011.7 hPa SE 13.0 km/h 13.0 km/h 38 % 0.0 mm 16.0 W/m2 BKN
21:14 32.7 °C 16.5 °C 1011.7 hPa Calm     38 % 0.0 mm 14.0 W/m2 BKN
21:19 32.5 °C 16.3 °C 1011.7 hPa SE 14.8 km/h 14.8 km/h 38 % 0.0 mm 11.0 W/m2 BKN
21:21 32.5 °C 16.3 °C 1011.7 hPa SE 16.7 km/h 16.7 km/h 38 % 0.0 mm 11.0 W/m2 BKN
21:25 32.3 °C 16.2 °C 1011.7 hPa SE 14.8 km/h 14.8 km/h 38 % 0.0 mm 9.0 W/m2 BKN
21:30 32.1 °C 16.4 °C 1011.7 hPa SE 9.7 km/h 9.7 km/h 39 % 0.0 mm 7.0 W/m2 BKN
21:35 31.9 °C 16.2 °C 1011.7 hPa SE 11.1 km/h 11.1 km/h 39 % 0.0 mm 5.0 W/m2 OVC
21:40 31.7 °C 16.4 °C 1011.7 hPa SE 9.3 km/h 9.3 km/h 40 % 0.0 mm 0.0 W/m2 OVC
21:45 31.6 °C 16.3 °C 1011.7 hPa SSE 13.0 km/h 13.0 km/h 40 % 0.0 mm 0.0 W/m2 OVC
21:50 31.4 °C 16.6 °C 1012.1 hPa SE 13.0 km/h 13.0 km/h 41 % 0.0 mm 0.0 W/m2 CLR
21:55 31.3 °C 16.4 °C 1012.1 hPa SSE 11.1 km/h 11.1 km/h 41 % 0.0 mm 0.0 W/m2 CLR
21:56 31.2 °C 16.4 °C 1012.1 hPa SSE 14.8 km/h 14.8 km/h 41 % 0.0 mm 0.0 W/m2 CLR
22:01 31.1 °C 16.6 °C 1012.1 hPa SE 16.7 km/h 16.7 km/h 42 % 0.0 mm 0.0 W/m2 CLR
22:06 30.9 °C 16.8 °C 1012.1 hPa SE 7.4 km/h 7.4 km/h 43 % 0.0 mm 0.0 W/m2 CLR
22:11 30.7 °C 17.1 °C 1012.1 hPa Calm     44 % 0.0 mm 0.0 W/m2 CLR
22:16 30.5 °C 16.9 °C 1012.4 hPa Calm     44 % 0.0 mm 0.0 W/m2 CLR
22:17 30.4 °C 16.8 °C 1012.4 hPa SE 5.6 km/h 5.6 km/h 44 % 0.0 mm 0.0 W/m2 CLR
22:22 30.3 °C 17.0 °C 1012.4 hPa SSE 11.3 km/h 11.3 km/h 45 % 0.0 mm 0.0 W/m2 CLR
22:27 30.1 °C 17.2 °C 1012.4 hPa SE 9.7 km/h 9.7 km/h 46 % 0.0 mm 0.0 W/m2 CLR
22:32 29.9 °C 17.3 °C 1012.4 hPa SSE 13.0 km/h 13.0 km/h 47 % 0.0 mm 0.0 W/m2 CLR
22:37 29.7 °C 17.2 °C 1012.4 hPa SE 11.3 km/h 11.3 km/h 47 % 0.0 mm 0.0 W/m2 CLR
22:42 29.5 °C 17.0 °C 1012.4 hPa SE 13.0 km/h 13.0 km/h 47 % 0.0 mm 0.0 W/m2 CLR
22:43 29.5 °C 17.3 °C 1012.4 hPa SE 13.0 km/h 13.0 km/h 48 % 0.0 mm 0.0 W/m2 CLR
22:48 29.3 °C 17.1 °C 1012.4 hPa SSE 11.1 km/h 11.1 km/h 48 % 0.0 mm 0.0 W/m2 CLR
22:53 29.2 °C 17.1 °C 1012.8 hPa SE 9.3 km/h 9.3 km/h 48 % 0.0 mm 0.0 W/m2 CLR
22:58 29.1 °C 16.9 °C 1012.8 hPa ESE 11.1 km/h 11.1 km/h 48 % 0.0 mm 0.0 W/m2 CLR
23:03 29.0 °C 17.2 °C 1012.8 hPa Calm     49 % 0.0 mm 0.0 W/m2 CLR
23:08 28.8 °C 17.0 °C 1013.1 hPa Calm     49 % 0.0 mm 0.0 W/m2 CLR
23:13 28.6 °C 17.2 °C 1013.1 hPa Calm     50 % 0.0 mm 0.0 W/m2 CLR
23:18 28.6 °C 17.1 °C 1013.1 hPa SE 9.3 km/h 9.3 km/h 50 % 0.0 mm 0.0 W/m2 CLR
23:23 28.5 °C 17.1 °C 1013.1 hPa Calm     50 % 0.0 mm 0.0 W/m2 CLR
23:28 28.4 °C 16.9 °C 1013.1 hPa Calm     50 % 0.0 mm 0.0 W/m2 CLR
23:33 28.3 °C 16.9 °C 1013.1 hPa Calm     50 % 0.0 mm 0.0 W/m2 CLR
23:38 28.2 °C 17.1 °C 1013.1 hPa Calm     51 % 0.0 mm 0.0 W/m2 CLR
23:43 28.1 °C 16.9 °C 1013.1 hPa Calm     51 % 0.0 mm 0.0 W/m2 CLR
23:48 27.7 °C 16.9 °C 1013.1 hPa Calm     52 % 0.0 mm 0.0 W/m2 CLR
23:53 27.4 °C 16.9 °C 1013.4 hPa Calm     53 % 0.0 mm 0.0 W/m2 CLR
23:58 27.2 °C 16.8 °C 1013.4 hPa Calm     53 % 0.0 mm 0.0 W/m2 CLR
Lo Temps de Massalio
Compliments of Weather Underground - 1.25 mb